createdAt,value
2022-11-25T00:01:33.475Z,76.40
2022-11-25T00:04:03.991Z,81.63
2022-11-25T00:06:34.533Z,89.70
2022-11-25T00:09:05.027Z,85.72
2022-11-25T00:11:35.995Z,83.30
2022-11-25T00:14:05.738Z,71.45
2022-11-25T00:16:34.065Z,84.97
2022-11-25T00:19:04.471Z,80.97
2022-11-25T00:21:35.105Z,86.07
2022-11-25T00:24:05.659Z,87.13
2022-11-25T00:26:35.867Z,91.53
2022-11-25T00:29:06.517Z,109.75
2022-11-25T00:31:36.860Z,113.97
2022-11-25T00:34:07.355Z,120.47
2022-11-25T00:36:38.100Z,118.18
2022-11-25T00:39:08.856Z,125.32
2022-11-25T00:41:54.503Z,136.48
2022-11-25T00:44:40.406Z,131.88
2022-11-25T00:47:12.092Z,119.63
2022-11-25T00:49:44.334Z,136.10
2022-11-25T00:52:17.240Z,144.00
2022-11-25T00:54:46.306Z,134.70
2022-11-25T00:57:15.171Z,153.95
2022-11-25T00:59:43.880Z,154.73
2022-11-25T01:02:12.960Z,155.20
2022-11-25T01:07:11.430Z,117.90
2022-11-25T01:09:39.963Z,138.52
2022-11-25T01:12:08.322Z,127.18
2022-11-25T01:14:37.281Z,106.35
2022-11-25T01:17:05.937Z,131.10
2022-11-25T01:19:34.638Z,124.70
2022-11-25T01:22:04.209Z,116.43
2022-11-25T01:24:36.355Z,101.78
2022-11-25T01:27:04.873Z,120.05
2022-11-25T01:29:33.487Z,119.00
2022-11-25T01:32:01.739Z,133.55
2022-11-25T01:34:32.626Z,111.07
2022-11-25T01:37:00.868Z,94.07
2022-11-25T01:39:33.074Z,88.43
2022-11-25T01:42:01.798Z,94.18
2022-11-25T01:44:33.294Z,97.22
2022-11-25T01:47:16.206Z,99.03
2022-11-25T01:49:48.411Z,90.80
2022-11-25T01:52:21.115Z,101.43
2022-11-25T01:54:56.581Z,98.88
2022-11-25T01:57:29.395Z,96.57
2022-11-25T02:00:00.716Z,84.65
2022-11-25T02:02:30.365Z,106.00
2022-11-25T02:04:59.827Z,95.22
2022-11-25T02:07:34.038Z,104.78
2022-11-25T02:10:06.940Z,94.82
2022-11-25T02:12:36.802Z,85.07
2022-11-25T02:15:07.370Z,89.45
2022-11-25T02:17:35.903Z,86.28
2022-11-25T02:20:08.241Z,67.85
2022-11-25T02:22:48.286Z,80.60
2022-11-25T02:25:21.958Z,77.25
2022-11-25T02:27:54.117Z,73.90
2022-11-25T02:30:22.792Z,84.45
2022-11-25T02:32:51.428Z,95.55
2022-11-25T02:35:29.759Z,96.50
2022-11-25T02:38:04.588Z,97.22
2022-11-25T02:40:37.680Z,88.28
2022-11-25T02:43:05.876Z,81.63
2022-11-25T02:45:53.740Z,87.15
2022-11-25T02:48:39.681Z,78.03
2022-11-25T02:51:11.284Z,92.18
2022-11-25T02:53:40.129Z,87.60
2022-11-25T02:56:11.362Z,87.10
2022-11-25T02:58:39.891Z,89.60
2022-11-25T03:01:09.325Z,92.82
2022-11-25T03:03:38.257Z,91.45
2022-11-25T03:06:07.514Z,87.75
2022-11-25T03:08:38.150Z,95.45
2022-11-25T03:11:07.180Z,82.15
2022-11-25T03:13:36.769Z,82.68
2022-11-25T03:16:05.781Z,78.80
2022-11-25T03:18:34.778Z,74.47
2022-11-25T03:21:03.406Z,95.07
2022-11-25T03:23:31.810Z,97.00
2022-11-25T03:26:00.332Z,93.95
2022-11-25T03:28:28.816Z,100.63
2022-11-25T03:31:32.762Z,93.40
2022-11-25T03:34:01.120Z,90.43
2022-11-25T03:36:29.626Z,92.67
2022-11-25T03:38:57.832Z,112.20
2022-11-25T03:41:26.486Z,98.00
2022-11-25T03:43:54.702Z,106.30
2022-11-25T03:46:23.389Z,94.63
2022-11-25T03:48:53.042Z,115.32
2022-11-25T03:51:21.740Z,113.72
2022-11-25T03:53:49.923Z,111.10
2022-11-25T03:56:18.439Z,104.80
2022-11-25T03:58:46.770Z,111.65
2022-11-25T04:01:15.453Z,113.95
2022-11-25T04:03:43.960Z,102.18
2022-11-25T04:06:13.958Z,126.73
2022-11-25T04:08:42.390Z,120.70
2022-11-25T04:11:10.860Z,123.65
2022-11-25T04:13:38.108Z,115.28
2022-11-25T04:16:06.819Z,120.72
2022-11-25T04:18:35.214Z,106.00
2022-11-25T04:21:03.663Z,94.60
2022-11-25T04:23:33.336Z,133.88
2022-11-25T04:26:01.843Z,126.13
2022-11-25T04:28:30.058Z,125.65
2022-11-25T04:30:58.621Z,116.10
2022-11-25T04:33:26.983Z,115.32
2022-11-25T04:35:55.456Z,116.23
2022-11-25T04:38:23.973Z,114.90
2022-11-25T04:40:53.995Z,115.03
2022-11-25T04:43:22.486Z,98.00
2022-11-25T04:46:13.132Z,100.32
2022-11-25T04:48:39.920Z,100.43
2022-11-25T04:51:08.998Z,105.95
2022-11-25T04:53:37.256Z,102.63
2022-11-25T04:56:07.960Z,93.95
2022-11-25T04:59:04.867Z,98.28
2022-11-25T05:01:33.985Z,91.25
2022-11-25T05:04:02.262Z,92.53
2022-11-25T05:06:30.812Z,83.27
2022-11-25T05:08:59.113Z,85.38
2022-11-25T05:11:28.995Z,83.47
2022-11-25T05:13:57.188Z,83.43
2022-11-25T05:16:26.290Z,82.25
2022-11-25T05:18:56.716Z,81.73
2022-11-25T05:21:25.295Z,80.85
2022-11-25T05:23:56.138Z,79.55
2022-11-25T05:26:24.853Z,77.63
2022-11-25T05:28:54.503Z,65.80
2022-11-25T05:31:23.201Z,84.15
2022-11-25T05:33:51.434Z,74.75
2022-11-25T05:36:20.196Z,63.47
2022-11-25T05:38:48.590Z,70.05
2022-11-25T05:41:17.419Z,72.72
2022-11-25T05:43:47.156Z,68.17
2022-11-25T05:46:17.757Z,66.30
2022-11-25T05:48:46.162Z,68.25
2022-11-25T05:51:15.773Z,64.25
2022-11-25T05:53:44.349Z,66.25
2022-11-25T05:56:12.928Z,74.50
2022-11-25T05:58:41.329Z,76.43
2022-11-25T06:01:11.353Z,68.57
2022-11-25T06:03:41.685Z,71.07
2022-11-25T06:06:11.557Z,69.25
2022-11-25T06:11:10.242Z,76.63
2022-11-25T06:13:38.694Z,65.97
2022-11-25T06:16:12.183Z,62.42
2022-11-25T06:18:42.345Z,66.68
2022-11-25T06:21:11.688Z,58.35
2022-11-25T06:23:40.206Z,62.83
2022-11-25T06:26:11.582Z,60.47
2022-11-25T06:28:39.732Z,64.55
2022-11-25T06:31:10.301Z,65.83
2022-11-25T06:33:38.937Z,60.28
2022-11-25T06:36:16.943Z,69.90
2022-11-25T06:38:45.792Z,65.10
2022-11-25T06:41:15.071Z,59.03
2022-11-25T06:43:43.423Z,63.33
2022-11-25T06:46:17.449Z,72.67
2022-11-25T06:48:49.596Z,70.22
2022-11-25T06:51:20.081Z,66.78
2022-11-25T06:53:48.318Z,66.70
2022-11-25T06:56:19.527Z,61.13
2022-11-25T06:58:48.995Z,65.82
2022-11-25T07:01:19.925Z,70.57
2022-11-25T07:03:51.159Z,72.88
2022-11-25T07:06:21.864Z,64.68
2022-11-25T07:08:50.231Z,59.80
2022-11-25T07:11:20.748Z,69.88
2022-11-25T07:13:52.219Z,68.57
2022-11-25T07:16:20.855Z,75.25
2022-11-25T07:18:49.702Z,65.88
2022-11-25T07:21:24.739Z,64.35
2022-11-25T07:23:54.413Z,70.70
2022-11-25T07:26:24.644Z,71.07
2022-11-25T07:28:54.578Z,73.80
2022-11-25T07:31:32.849Z,65.40
2022-11-25T07:34:03.057Z,65.20
2022-11-25T07:36:35.056Z,74.03
2022-11-25T07:39:06.550Z,68.72
2022-11-25T07:41:35.655Z,69.25
2022-11-25T07:44:07.697Z,86.35
2022-11-25T07:46:38.499Z,68.47
2022-11-25T07:49:10.124Z,79.00
2022-11-25T07:51:41.646Z,72.60
2022-11-25T07:54:13.129Z,65.25
2022-11-25T07:56:44.952Z,58.47
2022-11-25T07:59:15.602Z,56.22
2022-11-25T08:01:44.360Z,61.47
2022-11-25T08:04:19.689Z,59.17
2022-11-25T08:06:52.226Z,49.55
2022-11-25T08:09:23.031Z,49.90
2022-11-25T08:11:52.079Z,50.53
2022-11-25T08:14:20.727Z,53.45
2022-11-25T08:16:50.490Z,53.35
2022-11-25T08:19:19.730Z,56.15
2022-11-25T08:21:48.950Z,51.85
2022-11-25T08:24:21.994Z,52.92
2022-11-25T08:26:51.473Z,53.20
2022-11-25T08:29:20.459Z,47.78
2022-11-25T08:31:49.873Z,44.72
2022-11-25T08:34:21.067Z,39.50
2022-11-25T08:36:49.682Z,52.13
2022-11-25T08:39:51.632Z,52.22
2022-11-25T08:42:09.852Z,47.42
2022-11-25T08:44:38.354Z,45.00
2022-11-25T08:47:06.889Z,46.07
2022-11-25T08:49:40.798Z,41.72
2022-11-25T08:52:11.644Z,37.97
2022-11-25T08:54:41.489Z,38.47
2022-11-25T08:57:10.066Z,36.17
2022-11-25T08:59:39.235Z,30.55
2022-11-25T09:02:09.910Z,29.25
2022-11-25T09:04:38.139Z,35.05
2022-11-25T09:07:06.594Z,37.17
2022-11-25T09:09:35.223Z,39.70
2022-11-25T09:12:06.064Z,37.20
2022-11-25T09:14:34.203Z,26.20
2022-11-25T09:17:04.086Z,22.35
2022-11-25T09:19:32.214Z,23.48
2022-11-25T09:22:00.733Z,18.83
2022-11-25T09:24:29.350Z,20.05
2022-11-25T09:26:57.845Z,21.27
2022-11-25T09:29:27.895Z,17.75
2022-11-25T09:31:56.634Z,16.75
2022-11-25T09:34:24.888Z,15.52
2022-11-25T09:36:53.834Z,19.05
2022-11-25T09:39:22.214Z,24.00
2022-11-25T09:42:23.073Z,22.77
2022-11-25T09:45:28.566Z,22.90
2022-11-25T09:48:23.779Z,19.35
2022-11-25T09:51:17.346Z,15.60
2022-11-25T09:53:51.511Z,14.88
2022-11-25T09:56:31.042Z,20.02
2022-11-25T09:59:04.012Z,17.15
2022-11-25T10:01:40.386Z,18.17
2022-11-25T10:04:14.747Z,17.02
2022-11-25T10:06:55.065Z,16.92
2022-11-25T10:09:27.413Z,19.27
2022-11-25T10:11:59.570Z,19.77
2022-11-25T10:14:33.834Z,17.35
2022-11-25T10:17:09.848Z,25.15
2022-11-25T10:19:48.238Z,23.55
2022-11-25T10:22:25.906Z,25.05
2022-11-25T10:24:58.303Z,24.25
2022-11-25T10:27:32.450Z,21.50
2022-11-25T10:30:09.021Z,24.70
2022-11-25T10:32:43.369Z,23.98
2022-11-25T10:35:25.063Z,30.00
2022-11-25T10:37:55.685Z,27.17
2022-11-25T10:40:24.127Z,29.38
2022-11-25T10:42:52.445Z,36.00
2022-11-25T10:45:33.422Z,34.67
2022-11-25T10:48:26.742Z,37.13
2022-11-25T10:51:07.970Z,36.75
2022-11-25T10:53:36.435Z,39.78
2022-11-25T10:56:11.854Z,32.72
2022-11-25T10:58:42.969Z,35.45
2022-11-25T11:01:17.876Z,33.30
2022-11-25T11:03:52.884Z,31.20
2022-11-25T11:06:33.815Z,29.77
2022-11-25T11:09:02.152Z,36.92
2022-11-25T11:11:31.820Z,29.52
2022-11-25T11:16:33.309Z,32.47
2022-11-25T11:19:03.168Z,31.92
2022-11-25T11:21:34.826Z,35.30
2022-11-25T11:24:05.732Z,32.05
2022-11-25T11:26:36.414Z,32.80
2022-11-25T11:29:11.202Z,30.52
2022-11-25T11:31:49.363Z,29.08
2022-11-25T11:34:38.859Z,34.08
2022-11-25T11:37:23.925Z,34.72
2022-11-25T11:40:04.359Z,31.13
2022-11-25T11:42:44.139Z,34.25
2022-11-25T11:45:29.191Z,31.13
2022-11-25T11:48:14.526Z,32.85
2022-11-25T11:50:48.867Z,29.20
2022-11-25T11:53:23.942Z,28.75
2022-11-25T11:56:33.117Z,33.13
2022-11-25T11:59:00.286Z,31.30
2022-11-25T12:01:47.745Z,27.80
2022-11-25T12:04:21.118Z,31.33
2022-11-25T12:07:01.543Z,28.90
2022-11-25T12:09:33.534Z,32.22
2022-11-25T12:12:06.338Z,31.35
2022-11-25T12:14:41.940Z,37.50
2022-11-25T12:17:18.499Z,34.75
2022-11-25T12:19:56.658Z,28.75
2022-11-25T12:22:33.673Z,33.47
2022-11-25T12:25:10.022Z,34.97
2022-11-25T12:27:42.063Z,27.92
2022-11-25T12:30:14.579Z,37.85
2022-11-25T12:32:54.643Z,28.67
2022-11-25T12:35:32.501Z,38.00
2022-11-25T12:38:10.970Z,34.00
2022-11-25T12:40:46.877Z,33.28
2022-11-25T12:43:27.307Z,27.85
2022-11-25T12:46:18.029Z,27.65
2022-11-25T12:48:46.650Z,27.02
2022-11-25T12:51:26.269Z,29.73
2022-11-25T12:54:06.934Z,32.28
2022-11-25T12:56:57.245Z,27.38
2022-11-25T12:59:47.785Z,29.75
2022-11-25T13:02:45.744Z,26.17
2022-11-25T13:08:27.773Z,27.42
2022-11-25T13:11:23.509Z,31.73
2022-11-25T13:14:02.346Z,31.52
2022-11-25T13:16:33.153Z,26.83
2022-11-25T13:19:02.653Z,29.70
2022-11-25T13:21:40.338Z,26.00
2022-11-25T13:24:29.487Z,31.85
2022-11-25T13:27:02.579Z,29.80
2022-11-25T13:30:05.216Z,29.27
2022-11-25T13:32:46.385Z,32.20
2022-11-25T13:35:59.520Z,30.20
2022-11-25T13:38:40.223Z,31.30
2022-11-25T13:42:21.540Z,25.95
2022-11-25T13:45:24.233Z,29.02
2022-11-25T13:47:56.588Z,36.38
2022-11-25T13:50:41.981Z,31.60
2022-11-25T13:53:30.100Z,33.70
2022-11-25T13:56:14.296Z,37.40
2022-11-25T13:59:29.554Z,35.13
2022-11-25T14:02:36.999Z,31.80
2022-11-25T14:05:20.869Z,36.55
2022-11-25T14:08:00.649Z,35.50
2022-11-25T14:10:46.071Z,38.95
2022-11-25T14:13:43.257Z,39.63
2022-11-25T14:16:36.742Z,36.75
2022-11-25T14:19:52.839Z,32.03
2022-11-25T14:22:52.944Z,30.95
2022-11-25T14:25:29.178Z,37.08
2022-11-25T14:28:08.864Z,29.73
2022-11-25T14:30:51.844Z,34.75
2022-11-25T14:33:27.187Z,37.95
2022-11-25T14:36:01.927Z,42.33
2022-11-25T14:38:39.224Z,38.47
2022-11-25T14:41:12.569Z,41.20
2022-11-25T14:43:44.443Z,42.95
2022-11-25T14:46:15.892Z,43.38
2022-11-25T14:48:45.317Z,35.47
2022-11-25T14:51:15.575Z,41.30
2022-11-25T14:53:48.427Z,48.47
2022-11-25T14:56:23.337Z,55.10
2022-11-25T15:01:56.409Z,46.28
2022-11-25T15:04:27.082Z,58.40
2022-11-25T15:07:00.963Z,46.33
2022-11-25T15:09:34.849Z,50.55
2022-11-25T15:12:05.026Z,46.40
2022-11-25T15:14:40.756Z,52.85
2022-11-25T15:17:10.140Z,50.85
2022-11-25T15:19:39.374Z,43.58
2022-11-25T15:22:24.736Z,42.83
2022-11-25T15:24:56.482Z,53.83
2022-11-25T15:27:28.849Z,49.58
2022-11-25T15:29:59.002Z,48.63
2022-11-25T15:32:29.614Z,43.83
2022-11-25T15:35:01.072Z,40.90
2022-11-25T15:37:31.184Z,53.03
2022-11-25T15:40:36.595Z,49.20
2022-11-25T15:43:08.738Z,41.40
2022-11-25T15:45:45.464Z,55.25
2022-11-25T15:48:19.168Z,51.97
2022-11-25T15:50:47.771Z,53.67
2022-11-25T15:53:32.943Z,50.10
2022-11-25T15:56:04.564Z,53.60
2022-11-25T16:01:07.285Z,45.85
2022-11-25T16:03:36.191Z,43.72
2022-11-25T16:06:21.561Z,45.53
2022-11-25T16:08:56.231Z,46.58
2022-11-25T16:11:29.194Z,47.15
2022-11-25T16:14:27.107Z,48.53
2022-11-25T16:17:05.625Z,49.05
2022-11-25T16:19:40.279Z,48.53
2022-11-25T16:22:14.719Z,52.58
2022-11-25T16:24:51.901Z,55.85
2022-11-25T16:29:57.777Z,59.45
2022-11-25T16:32:29.915Z,65.63
2022-11-25T16:35:11.466Z,63.25
2022-11-25T16:37:41.797Z,64.15
2022-11-25T16:40:16.288Z,73.32
2022-11-25T16:42:48.856Z,134.15
2022-11-25T16:45:21.222Z,84.18
2022-11-25T16:47:49.858Z,74.53
2022-11-25T16:50:19.406Z,69.85
2022-11-25T16:52:48.529Z,71.82
2022-11-25T16:55:18.682Z,72.53
2022-11-25T16:57:47.877Z,70.20
2022-11-25T17:00:19.464Z,73.22
2022-11-25T17:02:48.118Z,67.55
2022-11-25T17:05:19.554Z,65.07
2022-11-25T17:07:50.344Z,66.93
2022-11-25T17:10:19.670Z,73.53
2022-11-25T17:12:49.666Z,66.65
2022-11-25T17:15:22.591Z,67.95
2022-11-25T17:17:52.134Z,71.07
2022-11-25T17:20:23.940Z,68.97
2022-11-25T17:22:53.766Z,70.82
2022-11-25T17:30:24.528Z,61.45
2022-11-25T17:32:58.786Z,61.53
2022-11-25T17:35:27.420Z,61.15
2022-11-25T17:37:59.393Z,72.53
2022-11-25T17:40:27.917Z,72.80
2022-11-25T17:42:57.047Z,62.28
2022-11-25T17:45:26.715Z,66.95
2022-11-25T17:47:55.668Z,64.60
2022-11-25T17:50:26.451Z,62.85
2022-11-25T17:52:55.486Z,64.00
2022-11-25T17:55:24.056Z,63.95
2022-11-25T17:57:53.925Z,55.75
2022-11-25T18:00:25.041Z,65.45
2022-11-25T18:02:55.231Z,69.22
2022-11-25T18:05:27.013Z,83.75
2022-11-25T18:11:32.090Z,62.92
2022-11-25T18:14:53.091Z,68.43
2022-11-25T18:20:30.113Z,73.78
2022-11-25T18:22:58.801Z,74.90
2022-11-25T18:25:30.730Z,77.85
2022-11-25T18:28:02.985Z,76.97
2022-11-25T18:30:36.352Z,65.30
2022-11-25T18:33:15.163Z,70.35
2022-11-25T18:36:10.388Z,76.05
2022-11-25T18:38:39.248Z,72.55
2022-11-25T18:41:11.631Z,73.25
2022-11-25T18:43:40.429Z,71.05
2022-11-25T18:46:17.946Z,78.22
2022-11-25T18:48:53.421Z,84.53
2022-11-25T18:51:25.584Z,71.20
2022-11-25T18:53:54.295Z,81.20
2022-11-25T18:56:25.456Z,75.45
2022-11-25T18:59:01.734Z,64.20
2022-11-25T19:01:31.009Z,90.60
2022-11-25T19:04:03.202Z,77.68
2022-11-25T19:06:36.586Z,65.75
2022-11-25T19:09:07.094Z,78.40
2022-11-25T19:11:40.635Z,80.18
2022-11-25T19:14:17.326Z,79.95
2022-11-25T19:16:47.738Z,94.45
2022-11-25T19:19:18.280Z,94.50
2022-11-25T19:21:49.993Z,87.72
2022-11-25T19:24:18.552Z,94.57
2022-11-25T19:26:52.714Z,90.57
2022-11-25T19:29:24.241Z,94.15
2022-11-25T19:31:54.427Z,79.65
2022-11-25T19:34:28.881Z,80.18
2022-11-25T19:36:59.339Z,63.65
2022-11-25T19:39:28.948Z,68.70
2022-11-25T19:42:00.165Z,68.18
2022-11-25T19:44:32.547Z,75.55
2022-11-25T19:47:15.333Z,70.30
2022-11-25T19:49:44.969Z,60.55
2022-11-25T19:54:45.712Z,60.05
2022-11-25T19:57:18.337Z,62.70
2022-11-25T19:59:46.635Z,70.53
2022-11-25T20:02:18.923Z,65.22
2022-11-25T20:04:50.798Z,86.25
2022-11-25T20:07:24.283Z,66.07
2022-11-25T20:09:56.870Z,91.32
2022-11-25T20:12:31.494Z,89.43
2022-11-25T20:14:59.782Z,97.68
2022-11-25T20:17:32.046Z,100.82
2022-11-25T20:20:04.255Z,107.03
2022-11-25T20:22:37.336Z,105.43
2022-11-25T20:25:10.822Z,106.30
2022-11-25T20:27:39.556Z,104.20
2022-11-25T20:30:24.552Z,105.40
2022-11-25T20:32:56.467Z,107.28
2022-11-25T20:37:58.553Z,141.88
2022-11-25T20:40:33.576Z,150.82
2022-11-25T20:43:05.365Z,110.18
2022-11-25T20:45:40.492Z,108.65
2022-11-25T20:48:11.947Z,97.57
2022-11-25T20:50:40.560Z,110.70
2022-11-25T20:53:16.005Z,120.65
2022-11-25T20:55:45.813Z,135.60
2022-11-25T20:58:22.527Z,136.85
2022-11-25T21:00:55.704Z,131.30
2022-11-25T21:03:29.023Z,92.82
2022-11-25T21:05:58.826Z,98.20
2022-11-25T21:08:31.089Z,87.75
2022-11-25T21:11:00.414Z,92.43
2022-11-25T21:13:36.627Z,92.10
2022-11-25T21:16:07.587Z,90.40
2022-11-25T21:18:36.443Z,83.80
2022-11-25T21:21:05.276Z,90.33
2022-11-25T21:23:38.996Z,84.53
2022-11-25T21:26:12.251Z,80.18
2022-11-25T21:28:47.464Z,88.07
2022-11-25T21:31:18.098Z,94.30
2022-11-25T21:33:47.993Z,125.90
2022-11-25T21:36:20.266Z,93.43
2022-11-25T21:38:52.622Z,91.60
2022-11-25T21:41:24.280Z,89.00
2022-11-25T21:43:53.046Z,89.35
2022-11-25T21:46:27.902Z,109.53
2022-11-25T21:48:58.872Z,105.88
2022-11-25T21:51:27.344Z,94.20
2022-11-25T21:53:57.481Z,100.32
2022-11-25T21:56:29.711Z,100.00
2022-11-25T21:59:03.951Z,89.50
2022-11-25T22:01:32.796Z,106.95
2022-11-25T22:04:01.724Z,95.43
2022-11-25T22:06:35.055Z,104.03
2022-11-25T22:09:10.710Z,89.35
2022-11-25T22:11:43.422Z,102.30
2022-11-25T22:14:17.047Z,101.10
2022-11-25T22:16:45.702Z,98.60
2022-11-25T22:19:20.787Z,102.80
2022-11-25T22:21:50.971Z,90.57
2022-11-25T22:24:24.266Z,91.70
2022-11-25T22:26:59.172Z,106.35
2022-11-25T22:29:34.316Z,88.25
2022-11-25T22:32:05.023Z,95.88
2022-11-25T22:34:39.685Z,104.82
2022-11-25T22:37:17.229Z,120.90
2022-11-25T22:39:49.705Z,83.80
2022-11-25T22:42:25.970Z,106.35
2022-11-25T22:44:57.520Z,97.50
2022-11-25T22:47:30.505Z,97.15
2022-11-25T22:50:05.944Z,76.78
2022-11-25T22:52:36.409Z,75.93
2022-11-25T22:55:17.956Z,74.72
2022-11-25T22:57:47.043Z,74.72
2022-11-25T23:00:23.388Z,91.43
2022-11-25T23:02:53.395Z,85.60
2022-11-25T23:05:30.734Z,96.63
2022-11-25T23:08:01.266Z,92.60
2022-11-25T23:10:33.045Z,94.05
2022-11-25T23:13:01.437Z,112.28
2022-11-25T23:15:30.788Z,103.80
2022-11-25T23:18:00.772Z,112.90
2022-11-25T23:20:34.602Z,103.18
2022-11-25T23:23:13.526Z,105.63
2022-11-25T23:25:48.164Z,97.30
2022-11-25T23:28:17.117Z,94.15
2022-11-25T23:30:50.500Z,96.50
2022-11-25T23:33:29.699Z,109.93
2022-11-25T23:36:06.147Z,83.75
2022-11-25T23:38:48.021Z,89.55
2022-11-25T23:41:23.746Z,72.60
2022-11-25T23:43:53.481Z,79.70
2022-11-25T23:46:27.978Z,86.40
2022-11-25T23:48:59.231Z,96.78
2022-11-25T23:51:29.882Z,100.32
2022-11-25T23:54:02.125Z,93.90
2022-11-25T23:56:34.721Z,85.82
2022-11-25T23:59:02.991Z,100.18
